Time;durP1;ratioP1;P1;durP2;ratioP2;P2;SDS_P1;SDS_P2;PMS_P1;PMS_P2;Temp;Humidity;BMP_temperature;BMP_pressure;BME280_temperature;BME280_humidity;BME280_pressure;Samples;Min_cycle;Max_cycle;Signal;HPM_P1;HPM_P2
2023/05/20 00:01:50;;;;;;;12.05;3.33;;;;;;;13.28;100.00;102316.91;4989368;28;20050;-67
2023/05/20 00:04:17;;;;;;;11.20;2.95;;;;;;;13.58;100.00;102346.06;4989126;28;20504;-67
2023/05/20 00:06:44;;;;;;;14.73;3.28;;;;;;;13.46;100.00;102344.56;4989156;28;20054;-67
2023/05/20 00:09:11;;;;;;;10.85;3.05;;;;;;;13.50;100.00;102344.50;4990130;28;20058;-67
2023/05/20 00:11:38;;;;;;;15.82;3.47;;;;;;;13.57;100.00;102341.69;4989647;28;20052;-67
2023/05/20 00:14:05;;;;;;;11.05;2.88;;;;;;;13.65;100.00;102344.13;4989288;28;20305;-67
2023/05/20 00:16:31;;;;;;;12.00;3.30;;;;;;;13.60;100.00;102324.97;4990022;28;20046;-67
2023/05/20 00:18:58;;;;;;;14.32;3.17;;;;;;;13.69;100.00;102343.16;4990266;28;20062;-68
2023/05/20 00:21:25;;;;;;;12.13;3.00;;;;;;;13.56;100.00;102339.09;4989655;28;20042;-67
2023/05/20 00:23:52;;;;;;;11.63;3.05;;;;;;;13.70;100.00;102341.38;4990244;28;20077;-68
2023/05/20 00:26:20;;;;;;;9.75;2.40;;;;;;;13.61;100.00;102335.44;4989324;28;20407;-68
2023/05/20 00:28:47;;;;;;;17.13;3.88;;;;;;;13.57;100.00;102333.78;4990610;28;20050;-68
2023/05/20 00:31:13;;;;;;;9.35;2.65;;;;;;;13.55;100.00;102326.84;4989932;28;20050;-68
2023/05/20 00:33:40;;;;;;;12.60;2.28;;;;;;;13.37;100.00;102318.50;4987448;28;20526;-68
2023/05/20 00:36:07;;;;;;;12.20;2.88;;;;;;;13.48;100.00;102326.97;4990086;28;20407;-68
2023/05/20 00:38:34;;;;;;;11.60;3.22;;;;;;;13.34;100.00;102323.81;4990423;28;20054;-68
2023/05/20 00:41:01;;;;;;;12.15;4.15;;;;;;;13.23;100.00;102313.53;4989089;28;20056;-68
2023/05/20 00:43:27;;;;;;;14.15;2.83;;;;;;;13.39;100.00;102318.47;4989040;28;20053;-69
2023/05/20 00:45:54;;;;;;;11.35;3.13;;;;;;;13.46;100.00;102325.31;4989665;28;20050;-67
2023/05/20 00:48:21;;;;;;;16.83;2.92;;;;;;;13.06;100.00;102290.25;4990477;28;20058;-67
2023/05/20 00:50:49;;;;;;;10.38;2.85;;;;;;;13.42;100.00;102316.63;4990318;28;20056;-67
2023/05/20 00:53:20;;;;;;;11.05;2.75;;;;;;;13.46;100.00;102317.41;4990206;28;20066;-67
2023/05/20 00:55:47;;;;;;;8.27;2.30;;;;;;;13.40;100.00;102305.28;4987615;28;20049;-67
2023/05/20 00:58:14;;;;;;;8.27;2.55;;;;;;;13.41;100.00;102293.84;4990439;28;20061;-67
2023/05/20 01:00:41;;;;;;;12.82;3.33;;;;;;;13.45;100.00;102311.25;4989780;28;20076;-67
2023/05/20 01:03:08;;;;;;;12.18;3.03;;;;;;;13.48;100.00;102299.81;4990103;28;20054;-67
2023/05/20 01:05:35;;;;;;;8.45;2.40;;;;;;;13.61;100.00;102308.25;4989459;28;20138;-67
2023/05/20 01:08:05;;;;;;;9.63;2.83;;;;;;;13.48;100.00;102300.66;4990968;28;20050;-68
2023/05/20 01:10:36;;;;;;;12.38;3.00;;;;;;;13.69;100.00;102301.03;4995690;28;20185;-67
2023/05/20 01:13:07;;;;;;;11.50;3.03;;;;;;;13.66;100.00;102301.97;4993821;28;20065;-67
2023/05/20 01:15:35;;;;;;;7.55;2.30;;;;;;;13.56;100.00;102305.72;4992670;28;20136;-68
2023/05/20 01:18:05;;;;;;;11.23;2.97;;;;;;;13.64;100.00;102292.41;4994425;28;20137;-68
2023/05/20 01:20:32;;;;;;;11.07;3.47;;;;;;;13.53;100.00;102292.69;4997893;28;20061;-67
2023/05/20 01:22:59;;;;;;;10.65;3.40;;;;;;;13.55;100.00;102295.28;4994013;28;20046;-67
2023/05/20 01:25:26;;;;;;;10.20;2.45;;;;;;;13.50;100.00;102276.09;4992440;28;20089;-67
2023/05/20 01:27:55;;;;;;;12.60;3.17;;;;;;;13.61;100.00;102293.31;4994034;28;20050;-67
2023/05/20 01:30:27;;;;;;;10.10;2.45;;;;;;;13.58;100.00;102293.44;4993877;28;20492;-67
2023/05/20 01:32:58;;;;;;;11.20;2.58;;;;;;;13.50;100.00;102292.75;4993917;28;20054;-67
2023/05/20 01:35:26;;;;;;;8.60;2.47;;;;;;;13.43;100.00;102289.41;4993273;28;20046;-67
2023/05/20 01:37:55;;;;;;;9.23;2.50;;;;;;;13.49;100.00;102293.63;4993658;28;20492;-67
2023/05/20 01:40:23;;;;;;;11.77;2.97;;;;;;;13.53;100.00;102297.94;4992897;28;20054;-68
2023/05/20 01:42:54;;;;;;;8.00;2.50;;;;;;;13.35;100.00;102279.97;4993226;28;20085;-67
2023/05/20 01:45:23;;;;;;;10.57;3.00;;;;;;;13.33;100.00;102281.78;4992614;28;20292;-67
2023/05/20 01:47:50;;;;;;;10.10;2.45;;;;;;;13.39;100.00;102271.97;4993163;28;20046;-68
2023/05/20 01:50:17;;;;;;;9.40;2.30;;;;;;;13.46;100.00;102281.44;4976144;28;20054;-68
2023/05/20 01:52:43;;;;;;;11.32;3.15;;;;;;;13.45;100.00;102279.69;4993144;28;20043;-67
2023/05/20 01:55:10;;;;;;;11.57;2.38;;;;;;;13.29;100.00;102258.13;4992180;28;20048;-67
2023/05/20 01:57:37;;;;;;;8.13;2.13;;;;;;;13.41;100.00;102270.16;4996914;28;20520;-67
2023/05/20 02:00:05;;;;;;;8.82;2.40;;;;;;;13.43;100.00;102276.25;5002426;28;20366;-67
2023/05/20 02:02:32;;;;;;;10.70;2.60;;;;;;;13.37;100.00;102270.25;4994034;28;20141;-68
2023/05/20 02:04:59;;;;;;;9.43;2.35;;;;;;;13.38;100.00;102272.00;4992901;28;20054;-67
2023/05/20 02:07:26;;;;;;;8.18;2.50;;;;;;;13.36;100.00;102264.13;4993438;28;20369;-67
2023/05/20 02:09:52;;;;;;;10.90;2.92;;;;;;;13.47;100.00;102262.13;4992896;28;20196;-67
2023/05/20 02:12:19;;;;;;;8.50;2.60;;;;;;;13.47;100.00;102269.13;4993060;28;20113;-67
2023/05/20 02:14:46;;;;;;;9.30;2.80;;;;;;;13.34;100.00;102260.69;4990838;28;20068;-67
2023/05/20 02:17:16;;;;;;;11.75;2.92;;;;;;;13.35;100.00;102272.06;4993228;28;20050;-67
2023/05/20 02:19:44;;;;;;;10.02;2.60;;;;;;;13.37;100.00;102255.34;4992148;28;20063;-67
2023/05/20 02:22:12;;;;;;;11.32;3.22;;;;;;;13.23;100.00;102252.19;4984568;28;20051;-67
2023/05/20 02:24:39;;;;;;;8.20;2.10;;;;;;;13.22;100.00;102256.56;4991563;28;20404;-67
2023/05/20 02:27:06;;;;;;;12.48;2.80;;;;;;;13.14;100.00;102258.53;4992986;28;20152;-67
2023/05/20 02:29:33;;;;;;;8.27;2.38;;;;;;;13.15;100.00;102264.63;4992825;28;20042;-67
2023/05/20 02:32:00;;;;;;;13.05;2.78;;;;;;;13.04;100.00;102247.34;4992153;28;20137;-67
2023/05/20 02:34:27;;;;;;;12.63;2.60;;;;;;;13.28;100.00;102248.53;4992199;28;20104;-67
2023/05/20 02:36:53;;;;;;;8.38;2.75;;;;;;;13.31;100.00;102250.22;4992560;28;20050;-67
2023/05/20 02:39:20;;;;;;;7.63;1.88;;;;;;;13.41;100.00;102243.84;4992572;28;20076;-67
2023/05/20 02:41:47;;;;;;;8.73;2.15;;;;;;;13.46;100.00;102254.25;4992027;28;20484;-67
2023/05/20 02:44:14;;;;;;;8.02;2.35;;;;;;;13.46;100.00;102255.13;4992054;28;20052;-67
2023/05/20 02:46:41;;;;;;;8.57;2.42;;;;;;;13.54;100.00;102252.28;4992660;28;20120;-67
2023/05/20 02:49:07;;;;;;;7.95;2.33;;;;;;;13.34;100.00;102226.50;4979186;28;20050;-67
2023/05/20 02:51:35;;;;;;;10.40;2.20;;;;;;;13.56;100.00;102250.47;4992434;28;20054;-68
2023/05/20 02:54:02;;;;;;;8.13;2.15;;;;;;;13.46;100.00;102249.00;4991851;28;20054;-68
2023/05/20 02:56:29;;;;;;;12.32;2.92;;;;;;;13.28;100.00;102235.38;4990454;28;20408;-67
2023/05/20 02:58:56;;;;;;;13.57;2.90;;;;;;;13.27;100.00;102244.16;4992182;28;20058;-67
2023/05/20 03:01:23;;;;;;;11.60;2.58;;;;;;;13.38;100.00;102236.03;4993976;28;20141;-67
2023/05/20 03:03:50;;;;;;;10.88;2.47;;;;;;;13.52;100.00;102240.94;4991551;28;20100;-67
2023/05/20 03:06:17;;;;;;;14.65;3.08;;;;;;;13.34;100.00;102239.66;4991819;28;20050;-67
2023/05/20 03:08:43;;;;;;;9.27;2.30;;;;;;;13.28;100.00;102237.16;4991663;28;20058;-67
2023/05/20 03:11:10;;;;;;;11.90;2.33;;;;;;;13.27;100.00;102217.84;4991781;28;20137;-67
2023/05/20 03:13:37;;;;;;;8.32;2.00;;;;;;;13.36;100.00;102221.19;4991870;28;20074;-67
2023/05/20 03:16:04;;;;;;;8.45;2.55;;;;;;;13.44;100.00;102235.03;4991394;28;20153;-68
2023/05/20 03:18:31;;;;;;;11.70;2.55;;;;;;;13.28;100.00;102224.84;4991654;28;20473;-68
2023/05/20 03:20:57;;;;;;;10.23;2.63;;;;;;;13.38;100.00;102222.88;4991951;28;20137;-68
2023/05/20 03:23:24;;;;;;;8.27;2.40;;;;;;;13.27;100.00;102219.63;4991793;28;20420;-68
2023/05/20 03:25:51;;;;;;;10.20;2.38;;;;;;;13.26;100.00;102224.03;4990666;28;20051;-68
2023/05/20 03:28:18;;;;;;;11.43;2.45;;;;;;;13.17;100.00;102199.72;4992913;28;20056;-67
2023/05/20 03:30:45;;;;;;;7.78;2.10;;;;;;;12.96;100.00;102194.09;4992315;28;20046;-68
2023/05/20 03:33:11;;;;;;;11.50;3.10;;;;;;;12.87;100.00;102210.97;4991403;28;20441;-67
2023/05/20 03:35:38;;;;;;;11.23;2.65;;;;;;;12.91;100.00;102214.38;4990831;28;20077;-67
2023/05/20 03:38:05;;;;;;;15.00;3.03;;;;;;;12.91;100.00;102217.00;4991607;28;20050;-67
2023/05/20 03:40:32;;;;;;;14.77;3.38;;;;;;;13.05;100.00;102219.28;4991304;28;20174;-67
2023/05/20 03:42:59;;;;;;;9.95;2.95;;;;;;;12.80;100.00;102212.00;4991761;28;20088;-68
2023/05/20 03:45:25;;;;;;;12.57;3.05;;;;;;;12.82;100.00;102211.94;4991267;28;20057;-68
2023/05/20 03:47:52;;;;;;;12.98;3.00;;;;;;;12.94;100.00;102206.41;4991472;28;20145;-67
2023/05/20 03:50:19;;;;;;;11.57;3.10;;;;;;;13.01;100.00;102215.84;4990030;28;20381;-67
2023/05/20 03:52:46;;;;;;;11.13;3.03;;;;;;;12.98;100.00;102213.31;4989686;28;20046;-67
2023/05/20 03:55:12;;;;;;;12.25;3.50;;;;;;;12.72;100.00;102224.44;4987735;28;20046;-68
2023/05/20 03:57:39;;;;;;;10.98;3.53;;;;;;;12.62;100.00;102233.44;4990004;28;20656;-67
2023/05/20 04:00:13;;;;;;;17.30;5.13;;;;;;;12.41;100.00;102222.50;4989427;28;20054;-67
2023/05/20 04:02:40;;;;;;;14.73;4.97;;;;;;;12.41;100.00;102214.63;4990468;28;20069;-67
2023/05/20 04:05:09;;;;;;;13.05;3.88;;;;;;;12.45;100.00;102211.03;4989274;28;20495;-68
2023/05/20 04:07:35;;;;;;;14.00;5.03;;;;;;;12.39;100.00;102212.91;4991587;28;20133;-68
2023/05/20 04:10:03;;;;;;;10.30;4.35;;;;;;;12.43;100.00;102214.56;4990042;28;20148;-67
2023/05/20 04:12:31;;;;;;;10.43;4.00;;;;;;;12.61;100.00;102208.06;4989186;28;20040;-67
2023/05/20 04:15:01;;;;;;;10.23;4.10;;;;;;;12.62;100.00;102192.25;4989189;28;20104;-68
2023/05/20 04:17:29;;;;;;;15.20;5.07;;;;;;;12.43;100.00;102185.69;4989889;28;20491;-68
2023/05/20 04:19:58;;;;;;;15.57;5.28;;;;;;;12.54;100.00;102207.34;4989465;28;20045;-68
2023/05/20 04:22:26;;;;;;;21.55;5.28;;;;;;;12.56;100.00;102205.53;4980006;28;20050;-68
2023/05/20 04:24:53;;;;;;;13.27;4.85;;;;;;;12.58;100.00;102209.00;4987966;28;20054;-68
2023/05/20 04:27:20;;;;;;;11.10;4.28;;;;;;;12.62;100.00;102194.00;4990566;28;20050;-68
2023/05/20 04:29:47;;;;;;;10.23;3.17;;;;;;;12.72;100.00;102192.91;4990993;28;20083;-68
2023/05/20 04:32:17;;;;;;;14.10;5.35;;;;;;;12.76;100.00;102204.22;4991038;28;20056;-68
2023/05/20 04:34:45;;;;;;;13.55;5.20;;;;;;;12.73;100.00;102202.53;4989395;28;20058;-68
2023/05/20 04:37:12;;;;;;;20.25;6.63;;;;;;;12.70;100.00;102205.22;4990528;28;20133;-68
2023/05/20 04:39:39;;;;;;;10.60;4.32;;;;;;;12.69;100.00;102200.84;4990228;28;20472;-68
2023/05/20 04:42:06;;;;;;;11.73;4.53;;;;;;;12.69;100.00;102195.59;4990233;28;20047;-68
2023/05/20 04:44:33;;;;;;;10.13;3.80;;;;;;;12.88;100.00;102202.16;4988433;28;20072;-68
2023/05/20 04:46:59;;;;;;;13.15;5.13;;;;;;;12.78;100.00;102195.38;4989749;28;20051;-68
2023/05/20 04:49:28;;;;;;;15.10;4.57;;;;;;;12.76;100.00;102206.84;4990295;28;20054;-68
2023/05/20 04:51:55;;;;;;;14.38;5.10;;;;;;;12.85;100.00;102207.47;4989851;28;20050;-68
2023/05/20 04:54:22;;;;;;;11.13;3.90;;;;;;;12.87;100.00;102196.94;4988318;28;20125;-68
2023/05/20 04:56:49;;;;;;;10.80;3.92;;;;;;;12.87;100.00;102204.81;4989732;28;20122;-68
2023/05/20 04:59:16;;;;;;;14.88;4.82;;;;;;;12.98;100.00;102202.81;4990095;28;20046;-68
2023/05/20 05:01:43;;;;;;;10.00;3.70;;;;;;;13.07;100.00;102194.69;4995632;28;20050;-68
2023/05/20 05:04:10;;;;;;;9.68;3.80;;;;;;;13.16;100.00;102200.63;4989922;28;20496;-68
2023/05/20 05:06:37;;;;;;;9.35;3.17;;;;;;;13.18;100.00;102194.41;4990891;28;20050;-67
2023/05/20 05:09:04;;;;;;;18.42;5.97;;;;;;;12.92;100.00;102202.94;4990382;28;20833;-67
2023/05/20 05:11:30;;;;;;;12.75;4.57;;;;;;;12.90;100.00;102195.09;4989594;28;20054;-68
2023/05/20 05:13:57;;;;;;;15.93;4.50;;;;;;;12.97;100.00;102189.69;4989794;28;20051;-68
2023/05/20 05:16:24;;;;;;;10.40;3.60;;;;;;;12.82;100.00;102204.06;4990716;28;20713;-67
2023/05/20 05:18:51;;;;;;;11.43;4.38;;;;;;;12.80;100.00;102195.34;4989003;28;20076;-67
2023/05/20 05:21:17;;;;;;;14.40;5.65;;;;;;;12.67;100.00;102184.28;4989300;28;20051;-67
2023/05/20 05:23:44;;;;;;;11.88;4.28;;;;;;;12.83;100.00;102185.63;4981304;28;20052;-68
2023/05/20 05:26:11;;;;;;;14.48;4.90;;;;;;;12.88;100.00;102181.13;4988535;28;20133;-68
2023/05/20 05:28:41;;;;;;;12.30;4.10;;;;;;;12.97;100.00;102187.94;4988380;28;20068;-68
2023/05/20 05:31:08;;;;;;;13.77;4.65;;;;;;;12.84;100.00;102190.00;4990281;28;20054;-68
2023/05/20 05:33:35;;;;;;;13.02;5.82;;;;;;;12.74;100.00;102188.47;4990278;28;20145;-68
2023/05/20 05:36:03;;;;;;;17.20;5.55;;;;;;;12.56;100.00;102184.53;4988821;28;20058;-68
2023/05/20 05:38:30;;;;;;;17.40;6.50;;;;;;;12.53;100.00;102180.19;4989624;28;20050;-67
2023/05/20 05:40:57;;;;;;;15.60;6.25;;;;;;;12.66;100.00;102186.03;4990157;28;20059;-68
2023/05/20 05:43:23;;;;;;;13.43;4.80;;;;;;;12.72;100.00;102178.00;4990170;28;20048;-67
2023/05/20 05:45:50;;;;;;;13.65;4.97;;;;;;;12.61;100.00;102163.41;4989230;28;20089;-67
2023/05/20 05:48:17;;;;;;;13.88;5.78;;;;;;;12.86;100.00;102189.97;4989035;28;20050;-67
2023/05/20 05:50:45;;;;;;;15.57;5.60;;;;;;;12.82;100.00;102189.16;4989215;28;20070;-67
2023/05/20 05:53:12;;;;;;;13.60;5.00;;;;;;;12.87;100.00;102191.66;4988036;28;20054;-67
2023/05/20 05:55:38;;;;;;;13.75;3.90;;;;;;;13.00;100.00;102198.38;4986876;28;20663;-67
2023/05/20 05:58:05;;;;;;;13.98;4.65;;;;;;;12.85;100.00;102186.44;4992639;28;20060;-67
2023/05/20 06:00:32;;;;;;;16.58;5.10;;;;;;;12.95;100.00;102184.47;4992685;28;20505;-67
2023/05/20 06:03:00;;;;;;;13.70;5.15;;;;;;;12.78;100.00;102199.78;4993103;28;20377;-67
2023/05/20 06:05:27;;;;;;;14.57;4.85;;;;;;;12.90;100.00;102194.22;4992623;28;20487;-67
2023/05/20 06:07:55;;;;;;;13.98;5.05;;;;;;;13.14;100.00;102199.78;4993463;28;20062;-67
2023/05/20 06:10:22;;;;;;;12.63;4.70;;;;;;;13.10;100.00;102186.72;4992886;28;20105;-67
2023/05/20 06:12:49;;;;;;;13.50;4.60;;;;;;;13.29;100.00;102199.41;4993593;28;20047;-68
2023/05/20 06:15:16;;;;;;;13.63;5.22;;;;;;;13.40;100.00;102186.00;4992394;28;20058;-67
2023/05/20 06:17:43;;;;;;;12.52;4.15;;;;;;;13.24;100.00;102165.34;4986876;28;20054;-66
2023/05/20 06:20:10;;;;;;;11.20;4.15;;;;;;;13.42;100.00;102186.81;4990008;28;20583;-66
2023/05/20 06:22:37;;;;;;;10.40;3.58;;;;;;;13.56;100.00;102189.94;4989945;28;20094;-67
2023/05/20 06:25:05;;;;;;;13.23;4.30;;;;;;;13.62;100.00;102188.94;4991369;28;20050;-67
2023/05/20 06:27:32;;;;;;;12.85;4.78;;;;;;;13.47;100.00;102177.03;4989544;28;20077;-67
2023/05/20 06:29:58;;;;;;;15.75;5.50;;;;;;;13.51;100.00;102183.97;4988868;28;20073;-67
2023/05/20 06:32:26;;;;;;;13.63;4.97;;;;;;;13.35;100.00;102186.16;4987078;28;20072;-68
2023/05/20 06:34:53;;;;;;;13.93;4.65;;;;;;;13.43;100.00;102183.31;4989588;28;20050;-68
2023/05/20 06:37:23;;;;;;;12.55;4.45;;;;;;;13.58;100.00;102172.38;4983402;28;20153;-68
2023/05/20 06:39:52;;;;;;;11.63;4.10;;;;;;;13.83;100.00;102169.91;4986516;28;20137;-68
2023/05/20 06:42:20;;;;;;;10.02;4.18;;;;;;;13.85;100.00;102180.41;4979249;28;20432;-68
2023/05/20 06:44:47;;;;;;;16.73;4.82;;;;;;;13.64;100.00;102172.19;4983893;28;20042;-68
2023/05/20 06:47:15;;;;;;;14.68;4.88;;;;;;;13.69;100.00;102169.44;4986003;28;20059;-67
2023/05/20 06:49:45;;;;;;;12.57;4.00;;;;;;;13.91;100.00;102174.09;4974686;28;20408;-67
2023/05/20 06:52:13;;;;;;;10.95;3.47;;;;;;;13.95;100.00;102178.34;4980049;28;20133;-67
2023/05/20 06:54:40;;;;;;;10.30;3.80;;;;;;;14.03;100.00;102173.75;4990521;28;20050;-67
2023/05/20 06:57:07;;;;;;;12.18;3.90;;;;;;;14.20;100.00;102178.50;4987545;28;20046;-67
2023/05/20 06:59:35;;;;;;;12.82;4.28;;;;;;;14.20;100.00;102167.97;4991728;28;20388;-67
2023/05/20 07:02:03;;;;;;;12.85;4.53;;;;;;;14.07;100.00;102178.00;4989076;28;20084;-68
2023/05/20 07:04:30;;;;;;;12.77;3.83;;;;;;;14.20;100.00;102166.22;4985610;28;20043;-68
2023/05/20 07:06:56;;;;;;;11.10;3.30;;;;;;;14.28;100.00;102178.28;4980773;28;20081;-67
2023/05/20 07:09:23;;;;;;;13.45;3.95;;;;;;;14.23;100.00;102178.41;4983405;28;20061;-67
2023/05/20 07:11:50;;;;;;;11.73;3.35;;;;;;;14.21;100.00;102183.72;4977927;28;20049;-67
2023/05/20 07:14:17;;;;;;;14.30;4.10;;;;;;;14.29;100.00;102178.25;4978095;28;20438;-67
2023/05/20 07:16:44;;;;;;;12.45;3.30;;;;;;;14.32;100.00;102182.53;4999306;28;20077;-67
2023/05/20 07:19:10;;;;;;;11.98;4.47;;;;;;;14.39;100.00;102181.44;4980052;28;20050;-67
2023/05/20 07:21:37;;;;;;;13.05;4.03;;;;;;;14.32;100.00;102182.53;4988623;28;20133;-67
2023/05/20 07:24:04;;;;;;;14.80;4.60;;;;;;;14.34;100.00;102192.16;4990120;28;20051;-67
2023/05/20 07:26:35;;;;;;;11.48;4.20;;;;;;;14.27;100.00;102187.09;4989827;28;20058;-67
2023/05/20 07:29:03;;;;;;;14.23;3.78;;;;;;;14.28;100.00;102192.31;4988699;28;20511;-66
2023/05/20 07:31:30;;;;;;;14.95;4.93;;;;;;;14.35;100.00;102182.47;4988005;28;20485;-67
2023/05/20 07:33:57;;;;;;;13.15;4.30;;;;;;;14.43;100.00;102172.56;4967799;28;20121;-67
2023/05/20 07:36:26;;;;;;;11.43;3.42;;;;;;;14.47;100.00;102174.19;4985403;28;20408;-67
2023/05/20 07:38:53;;;;;;;13.07;4.35;;;;;;;14.64;100.00;102170.19;4988797;28;20543;-67
2023/05/20 07:41:30;;;;;;;13.48;4.70;;;;;;;14.47;100.00;102181.22;4989501;28;20046;-68
2023/05/20 07:43:57;;;;;;;14.98;3.95;;;;;;;14.30;100.00;102165.94;4990854;28;20042;-67
2023/05/20 07:46:24;;;;;;;12.70;3.60;;;;;;;14.54;100.00;102167.81;4990123;28;20145;-67
2023/05/20 07:48:51;;;;;;;20.65;4.35;;;;;;;14.50;100.00;102170.56;4985654;28;20049;-67
2023/05/20 07:51:17;;;;;;;14.60;4.07;;;;;;;14.51;100.00;102165.25;4989267;28;20058;-67
2023/05/20 07:53:44;;;;;;;12.30;3.85;;;;;;;14.55;100.00;102163.38;4987302;28;20043;-67
2023/05/20 07:56:11;;;;;;;14.00;4.28;;;;;;;14.51;100.00;102172.31;4982518;28;20047;-67
2023/05/20 07:58:41;;;;;;;22.00;6.05;;;;;;;14.55;100.00;102174.78;4976856;28;20463;-67
2023/05/20 08:01:08;;;;;;;16.17;4.07;;;;;;;14.86;100.00;102180.91;4987999;28;20141;-67
2023/05/20 08:03:35;;;;;;;19.42;5.50;;;;;;;14.71;100.00;102188.38;4981805;28;20054;-67
2023/05/20 08:06:02;;;;;;;14.70;4.82;;;;;;;14.89;100.00;102178.16;4985838;28;20140;-67
2023/05/20 08:08:29;;;;;;;14.15;4.28;;;;;;;14.81;100.00;102184.53;4979356;28;20109;-67
2023/05/20 08:10:56;;;;;;;16.20;4.30;;;;;;;14.70;100.00;102189.31;4991070;28;20064;-67
2023/05/20 08:13:24;;;;;;;13.20;4.22;;;;;;;15.05;100.00;102189.94;4990664;28;20046;-68
2023/05/20 08:15:53;;;;;;;15.65;4.43;;;;;;;14.82;100.00;102164.31;4989561;28;20050;-67
2023/05/20 08:18:20;;;;;;;14.02;4.47;;;;;;;14.82;100.00;102188.06;4991954;28;20137;-67
2023/05/20 08:20:47;;;;;;;17.27;4.05;;;;;;;14.96;100.00;102191.09;4989186;28;20064;-67
2023/05/20 08:23:13;;;;;;;15.20;3.67;;;;;;;14.97;100.00;102189.31;4989389;28;20104;-67
2023/05/20 08:25:40;;;;;;;21.70;4.85;;;;;;;14.72;100.00;102182.19;4990006;28;20048;-67
2023/05/20 08:28:07;;;;;;;13.50;3.53;;;;;;;15.02;100.00;102181.25;4989016;28;20060;-67
2023/05/20 08:30:34;;;;;;;17.48;4.97;;;;;;;14.72;100.00;102179.56;4986132;28;20118;-67
2023/05/20 08:33:01;;;;;;;11.90;4.15;;;;;;;15.06;100.00;102165.25;4990127;28;20050;-68
2023/05/20 08:35:28;;;;;;;13.35;3.53;;;;;;;15.05;100.00;102168.84;4988677;28;20366;-67
2023/05/20 08:37:55;;;;;;;17.98;5.22;;;;;;;15.14;100.00;102178.22;4989320;28;20412;-67
2023/05/20 08:40:21;;;;;;;18.02;4.68;;;;;;;14.88;100.00;102164.09;4989524;28;20166;-67
2023/05/20 08:42:51;;;;;;;17.50;4.70;;;;;;;14.79;100.00;102173.19;4988107;28;20477;-67
2023/05/20 08:45:20;;;;;;;18.00;4.97;;;;;;;14.74;100.00;102176.88;4989196;28;20050;-67
2023/05/20 08:47:47;;;;;;;16.08;4.38;;;;;;;14.79;100.00;102167.91;4981936;28;20053;-67
2023/05/20 08:50:15;;;;;;;18.60;5.40;;;;;;;14.84;100.00;102174.78;4990875;28;20045;-67
2023/05/20 08:52:45;;;;;;;14.43;4.82;;;;;;;14.80;100.00;102174.03;4989996;28;20046;-67
2023/05/20 08:55:21;;;;;;;15.25;5.32;;;;;;;14.68;100.00;102167.41;4987577;28;20042;-67
2023/05/20 08:57:50;;;;;;;11.63;4.07;;;;;;;14.99;100.00;102182.22;4989241;28;20474;-67
2023/05/20 09:00:18;;;;;;;17.40;5.13;;;;;;;15.07;100.00;102180.19;4967129;28;20054;-67
2023/05/20 09:02:46;;;;;;;15.40;5.60;;;;;;;14.85;100.00;102168.63;4989368;28;20057;-68
2023/05/20 09:05:13;;;;;;;18.48;6.60;;;;;;;14.95;100.00;102173.53;4988308;28;20477;-68
2023/05/20 09:07:42;;;;;;;15.23;5.78;;;;;;;14.74;100.00;102177.75;4975655;28;20133;-68
2023/05/20 09:10:09;;;;;;;20.73;5.63;;;;;;;14.41;100.00;102179.63;4987768;28;20404;-67
2023/05/20 09:12:37;;;;;;;21.00;5.78;;;;;;;14.77;100.00;102177.66;4985375;28;20056;-68
2023/05/20 09:15:04;;;;;;;23.48;5.22;;;;;;;14.94;100.00;102177.09;4989105;28;20497;-67
2023/05/20 09:17:35;;;;;;;16.85;5.75;;;;;;;14.68;100.00;102183.22;4993512;28;20137;-67
2023/05/20 09:20:07;;;;;;;19.92;7.55;;;;;;;14.66;100.00;102185.03;4987821;28;20646;-67
2023/05/20 09:22:34;;;;;;;16.63;4.82;;;;;;;14.71;100.00;102179.59;4985872;28;20069;-67
2023/05/20 09:25:01;;;;;;;15.95;4.95;;;;;;;15.02;100.00;102183.91;4987745;28;20133;-67
2023/05/20 09:27:28;;;;;;;13.50;4.97;;;;;;;15.25;100.00;102185.78;4988029;28;21525;-67
2023/05/20 09:29:54;;;;;;;19.25;5.68;;;;;;;15.13;100.00;102174.69;4988952;28;20298;-67
2023/05/20 09:32:27;;;;;;;21.05;6.10;;;;;;;15.54;100.00;102179.47;4989282;28;20046;-68
2023/05/20 09:34:54;;;;;;;17.33;5.13;;;;;;;15.38;100.00;102171.22;4991639;28;20046;-67
2023/05/20 09:37:21;;;;;;;15.27;5.30;;;;;;;15.61;100.00;102173.03;4976618;28;20069;-68
2023/05/20 09:39:58;;;;;;;15.73;4.75;;;;;;;15.48;100.00;102172.63;4989318;28;20057;-67
2023/05/20 09:42:41;;;;;;;16.75;5.78;;;;;;;15.42;100.00;102174.59;4981476;28;20054;-68
2023/05/20 09:45:08;;;;;;;14.68;4.65;;;;;;;15.45;100.00;102166.59;4988294;28;20053;-67
2023/05/20 09:47:41;;;;;;;16.13;5.25;;;;;;;15.68;100.00;102156.06;4990053;28;20046;-67
2023/05/20 09:50:09;;;;;;;17.60;4.80;;;;;;;15.47;100.00;102154.19;4991986;28;20106;-67
2023/05/20 09:52:37;;;;;;;18.80;5.65;;;;;;;15.70;100.00;102150.72;4992491;28;20046;-67
2023/05/20 09:55:09;;;;;;;18.52;5.50;;;;;;;16.02;100.00;102148.69;4988709;28;20156;-67
2023/05/20 09:57:36;;;;;;;22.85;7.35;;;;;;;15.92;100.00;102149.06;4988111;28;20411;-67
2023/05/20 10:00:05;;;;;;;16.27;4.90;;;;;;;15.99;100.00;102146.16;4989824;28;20786;-67
2023/05/20 10:02:35;;;;;;;16.83;5.05;;;;;;;15.93;100.00;102132.25;4986651;28;20150;-67
2023/05/20 10:05:06;;;;;;;12.70;4.50;;;;;;;16.32;100.00;102138.72;4983300;28;20073;-68
2023/05/20 10:07:42;;;;;;;15.32;5.85;;;;;;;16.48;100.00;102139.84;4987184;28;20049;-67
2023/05/20 10:10:19;;;;;;;16.30;5.55;;;;;;;16.28;100.00;102132.69;4990671;28;20092;-67
2023/05/20 10:13:02;;;;;;;18.42;4.68;;;;;;;16.34;100.00;102134.22;4991869;28;20056;-67
2023/05/20 10:16:07;;;;;;;18.48;5.13;;;;;;;16.09;100.00;102145.75;4972667;28;20046;-68
2023/05/20 10:18:49;;;;;;;18.63;5.40;;;;;;;16.45;100.00;102136.44;4911904;29;20048;-67
2023/05/20 10:21:17;;;;;;;17.35;4.78;;;;;;;16.33;100.00;102135.16;4975191;28;20054;-67
2023/05/20 10:23:44;;;;;;;16.08;6.05;;;;;;;16.58;100.00;102118.31;4992592;28;20141;-67
2023/05/20 10:26:11;;;;;;;15.00;4.43;;;;;;;16.59;100.00;102123.56;4992245;28;20050;-68
2023/05/20 10:28:40;;;;;;;15.60;5.13;;;;;;;16.59;100.00;102130.59;4974776;28;20056;-67
2023/05/20 10:31:20;;;;;;;14.85;4.55;;;;;;;16.72;100.00;102123.06;4991736;28;20081;-68
2023/05/20 10:33:48;;;;;;;14.40;3.28;;;;;;;16.69;100.00;102124.00;4991158;28;20056;-67
2023/05/20 10:36:29;;;;;;;16.23;5.60;;;;;;;16.59;100.00;102125.31;4989699;28;20046;-67
2023/05/20 10:38:59;;;;;;;13.25;4.15;;;;;;;16.85;100.00;102129.56;4991594;28;20145;-68
2023/05/20 10:41:37;;;;;;;15.85;4.75;;;;;;;16.62;100.00;102123.41;4989130;28;20055;-68
2023/05/20 10:44:10;;;;;;;11.85;3.80;;;;;;;16.99;100.00;102115.75;4978100;28;20043;-68
2023/05/20 10:46:38;;;;;;;16.98;4.43;;;;;;;16.79;100.00;102101.56;4990584;28;20048;-67
2023/05/20 10:49:33;;;;;;;19.73;5.63;;;;;;;17.02;100.00;102110.34;4976061;28;20050;-68
2023/05/20 10:52:00;;;;;;;13.70;4.80;;;;;;;16.80;100.00;102110.34;4991622;28;20046;-67
2023/05/20 10:54:28;;;;;;;15.95;5.22;;;;;;;16.82;100.00;102106.72;4992212;28;20042;-67
2023/05/20 10:56:55;;;;;;;17.15;5.00;;;;;;;16.75;100.00;102094.69;4990165;28;20424;-67
2023/05/20 10:59:22;;;;;;;17.80;5.35;;;;;;;16.67;100.00;102105.56;4991230;28;20062;-67
2023/05/20 11:01:49;;;;;;;20.67;4.93;;;;;;;16.81;100.00;102102.34;4989327;28;20050;-67
2023/05/20 11:04:18;;;;;;;17.05;5.18;;;;;;;16.86;100.00;102099.56;4989709;28;20395;-67
2023/05/20 11:06:52;;;;;;;14.90;4.40;;;;;;;16.77;100.00;102076.97;4981499;28;20054;-68
2023/05/20 11:09:20;;;;;;;17.45;4.88;;;;;;;16.78;100.00;102106.91;4989235;28;20047;-68
2023/05/20 11:11:52;;;;;;;17.83;4.80;;;;;;;16.94;100.00;102093.94;4968882;28;20405;-68
2023/05/20 11:14:20;;;;;;;14.27;4.53;;;;;;;17.31;100.00;102089.69;4984151;28;20046;-68